createdAt,value
2023-05-14T00:01:52.530Z,87.10
2023-05-14T00:04:22.759Z,87.40
2023-05-14T00:06:50.055Z,87.80
2023-05-14T00:09:17.456Z,88.10
2023-05-14T00:11:44.702Z,88.40
2023-05-14T00:14:12.196Z,88.80
2023-05-14T00:16:39.369Z,89.10
2023-05-14T00:19:06.842Z,89.40
2023-05-14T00:21:34.192Z,90.00
2023-05-14T00:24:01.979Z,90.10
2023-05-14T00:26:29.522Z,90.30
2023-05-14T00:28:56.858Z,90.40
2023-05-14T00:31:24.106Z,90.50
2023-05-14T00:33:51.668Z,90.70
2023-05-14T00:36:19.016Z,90.80
2023-05-14T00:38:46.377Z,90.90
2023-05-14T00:41:14.040Z,91.30
2023-05-14T00:43:41.550Z,91.10
2023-05-14T00:46:09.022Z,91.30
2023-05-14T00:48:36.930Z,91.50
2023-05-14T00:51:04.408Z,91.60
2023-05-14T00:53:32.182Z,91.80
2023-05-14T00:55:59.567Z,92.10
2023-05-14T00:58:26.911Z,92.20
2023-05-14T01:00:54.450Z,92.40
2023-05-14T01:03:21.851Z,92.50
2023-05-14T01:05:55.081Z,92.70
2023-05-14T01:08:33.746Z,92.90
2023-05-14T01:11:32.547Z,93.10
2023-05-14T01:14:05.795Z,93.30
2023-05-14T01:16:35.229Z,93.40
2023-05-14T01:19:03.529Z,93.60
2023-05-14T01:21:39.053Z,93.80
2023-05-14T01:24:06.974Z,93.90
2023-05-14T01:26:34.856Z,94.10
2023-05-14T01:29:22.983Z,94.20
2023-05-14T01:31:52.374Z,94.50
2023-05-14T01:34:23.302Z,94.70
2023-05-14T01:36:52.090Z,94.90
2023-05-14T01:39:33.085Z,95.10
2023-05-14T01:42:01.139Z,95.40
2023-05-14T01:44:28.750Z,95.50
2023-05-14T01:46:56.288Z,95.70
2023-05-14T01:49:23.777Z,95.90
2023-05-14T01:51:51.539Z,96.10
2023-05-14T01:54:19.045Z,96.40
2023-05-14T01:56:46.436Z,96.60
2023-05-14T01:59:13.615Z,96.80
2023-05-14T02:01:41.170Z,97.10
2023-05-14T02:04:08.796Z,97.20
2023-05-14T02:06:36.123Z,97.40
2023-05-14T02:09:05.190Z,97.60
2023-05-14T02:11:32.576Z,97.70
2023-05-14T02:14:00.138Z,97.90
2023-05-14T02:16:27.590Z,98.10
2023-05-14T02:18:55.388Z,98.20
2023-05-14T02:21:22.793Z,98.30
2023-05-14T02:23:50.620Z,98.50
2023-05-14T02:26:17.895Z,99.00
2023-05-14T02:28:46.249Z,98.90
2023-05-14T02:31:13.516Z,99.20
2023-05-14T02:33:41.228Z,99.30
2023-05-14T02:36:08.952Z,99.50
2023-05-14T02:38:36.610Z,99.60
2023-05-14T02:41:03.922Z,99.80
2023-05-14T02:43:31.103Z,99.90
2023-05-14T02:45:58.459Z,99.90
2023-05-14T02:48:26.672Z,99.90
2023-05-14T02:50:53.780Z,99.90
2023-05-14T02:53:21.314Z,99.90
2023-05-14T02:55:48.982Z,99.90
2023-05-14T02:58:16.425Z,99.90
2023-05-14T03:00:44.066Z,99.90
2023-05-14T03:03:12.891Z,99.90
2023-05-14T03:05:41.807Z,99.90
2023-05-14T03:08:09.124Z,99.90
2023-05-14T03:10:36.854Z,99.90
2023-05-14T03:13:04.205Z,99.90
2023-05-14T03:15:31.728Z,99.90
2023-05-14T03:17:59.541Z,99.90
2023-05-14T03:20:27.590Z,99.90
2023-05-14T03:22:56.508Z,99.90
2023-05-14T03:25:23.696Z,99.90
2023-05-14T03:27:51.022Z,99.90
2023-05-14T03:30:18.508Z,99.90
2023-05-14T03:32:46.470Z,99.90
2023-05-14T03:35:13.739Z,99.90
2023-05-14T03:37:41.540Z,99.90
2023-05-14T03:40:09.305Z,99.90
2023-05-14T03:42:36.760Z,99.90
2023-05-14T03:45:04.437Z,99.90
2023-05-14T03:47:32.216Z,99.90
2023-05-14T03:49:59.464Z,99.90
2023-05-14T03:52:27.271Z,99.90
2023-05-14T03:54:54.869Z,99.90
2023-05-14T03:57:22.194Z,99.90
2023-05-14T03:59:49.382Z,99.90
2023-05-14T04:02:16.901Z,99.90
2023-05-14T04:04:44.311Z,99.90
2023-05-14T04:07:11.762Z,99.90
2023-05-14T04:09:38.751Z,99.90
2023-05-14T04:12:06.753Z,99.90
2023-05-14T04:14:34.048Z,99.90
2023-05-14T04:17:01.263Z,99.90
2023-05-14T04:19:29.010Z,99.90
2023-05-14T04:21:56.587Z,99.90
2023-05-14T04:24:23.977Z,99.90
2023-05-14T04:26:53.640Z,99.90
2023-05-14T04:29:21.433Z,99.90
2023-05-14T04:31:50.483Z,99.90
2023-05-14T04:34:18.060Z,99.90
2023-05-14T04:36:45.888Z,99.90
2023-05-14T04:39:13.192Z,99.90
2023-05-14T04:41:40.627Z,99.90
2023-05-14T04:44:08.420Z,99.90
2023-05-14T04:46:36.281Z,99.90
2023-05-14T04:49:03.633Z,99.90
2023-05-14T04:51:31.278Z,99.90
2023-05-14T04:53:58.677Z,99.90
2023-05-14T04:56:26.398Z,99.90
2023-05-14T04:58:53.746Z,99.90
2023-05-14T05:01:22.507Z,99.90
2023-05-14T05:03:49.755Z,99.90
2023-05-14T05:06:17.234Z,99.90
2023-05-14T05:08:44.494Z,99.90
2023-05-14T05:11:12.262Z,99.90
2023-05-14T05:13:39.625Z,99.90
2023-05-14T05:16:07.065Z,99.90
2023-05-14T05:18:34.421Z,99.90
2023-05-14T05:21:01.798Z,99.90
2023-05-14T05:23:29.212Z,99.90
2023-05-14T05:25:56.590Z,99.90
2023-05-14T05:28:23.940Z,99.90
2023-05-14T05:30:51.640Z,99.90
2023-05-14T05:33:19.632Z,99.90
2023-05-14T05:35:48.445Z,99.90
2023-05-14T05:38:16.327Z,99.90
2023-05-14T05:40:43.674Z,99.90
2023-05-14T05:43:12.930Z,99.90
2023-05-14T05:45:41.545Z,99.90
2023-05-14T05:48:09.010Z,99.90
2023-05-14T05:50:36.859Z,99.90
2023-05-14T05:53:04.402Z,99.90
2023-05-14T05:55:31.998Z,99.90
2023-05-14T05:57:59.578Z,99.90
2023-05-14T06:00:29.280Z,99.90
2023-05-14T06:02:56.853Z,99.90
2023-05-14T06:05:27.128Z,99.90
2023-05-14T06:07:55.859Z,99.90
2023-05-14T06:10:23.337Z,99.90
2023-05-14T06:12:51.110Z,99.90
2023-05-14T06:15:19.157Z,99.90
2023-05-14T06:17:47.242Z,99.90
2023-05-14T06:20:14.822Z,99.90
2023-05-14T06:22:42.097Z,99.90
2023-05-14T06:25:09.901Z,99.90
2023-05-14T06:27:37.229Z,99.90
2023-05-14T06:30:05.220Z,99.90
2023-05-14T06:32:32.540Z,99.90
2023-05-14T06:35:00.044Z,99.90
2023-05-14T06:37:29.677Z,99.90
2023-05-14T06:39:58.055Z,99.90
2023-05-14T06:42:25.363Z,99.90
2023-05-14T06:44:53.078Z,99.90
2023-05-14T06:47:22.140Z,99.90
2023-05-14T06:49:49.226Z,99.90
2023-05-14T06:52:17.178Z,99.90
2023-05-14T06:54:44.720Z,99.90
2023-05-14T06:57:13.731Z,99.90
2023-05-14T06:59:40.990Z,99.90
2023-05-14T07:02:08.359Z,99.90
2023-05-14T07:04:36.681Z,99.90
2023-05-14T07:07:04.014Z,99.90
2023-05-14T07:09:31.204Z,99.90
2023-05-14T07:11:58.292Z,99.90
2023-05-14T07:14:25.708Z,99.90
2023-05-14T07:16:53.172Z,99.90
2023-05-14T07:19:20.335Z,99.90
2023-05-14T07:21:48.137Z,99.90
2023-05-14T07:24:15.298Z,99.90
2023-05-14T07:26:42.601Z,99.90
2023-05-14T07:29:10.042Z,99.90
2023-05-14T07:31:37.323Z,99.90
2023-05-14T07:34:04.630Z,99.90
2023-05-14T07:36:31.765Z,99.90
2023-05-14T07:38:59.094Z,99.90
2023-05-14T07:41:26.160Z,99.90
2023-05-14T07:43:53.432Z,99.90
2023-05-14T07:46:20.624Z,99.90
2023-05-14T07:48:47.939Z,99.90
2023-05-14T07:51:15.074Z,99.90
2023-05-14T07:53:42.430Z,99.90
2023-05-14T07:56:09.693Z,99.90
2023-05-14T07:58:37.092Z,99.90
2023-05-14T08:01:07.336Z,99.90
2023-05-14T08:03:35.699Z,99.90
2023-05-14T08:06:04.159Z,99.90
2023-05-14T08:08:31.698Z,99.90
2023-05-14T08:10:58.932Z,99.90
2023-05-14T08:13:26.293Z,99.90
2023-05-14T08:15:53.465Z,99.90
2023-05-14T08:18:20.683Z,99.90
2023-05-14T08:20:48.552Z,99.90
2023-05-14T08:23:15.884Z,99.60
2023-05-14T08:25:42.847Z,99.10
2023-05-14T08:28:11.819Z,98.70
2023-05-14T08:30:38.981Z,98.40
2023-05-14T08:33:06.408Z,98.30
2023-05-14T08:35:33.775Z,97.90
2023-05-14T08:38:01.021Z,97.50
2023-05-14T08:40:28.807Z,97.10
2023-05-14T08:42:58.598Z,96.30
2023-05-14T08:45:32.003Z,95.50
2023-05-14T08:48:01.008Z,94.80
2023-05-14T08:50:30.880Z,94.20
2023-05-14T08:52:58.763Z,93.50
2023-05-14T08:55:28.612Z,92.80
2023-05-14T08:57:59.008Z,92.00
2023-05-14T09:00:26.774Z,92.00
2023-05-14T09:02:56.375Z,91.60
2023-05-14T09:05:26.663Z,91.30
2023-05-14T09:07:54.028Z,91.00
2023-05-14T09:10:22.878Z,90.70
2023-05-14T09:12:50.366Z,90.30
2023-05-14T09:15:17.653Z,90.00
2023-05-14T09:17:45.495Z,88.80
2023-05-14T09:20:13.548Z,87.10
2023-05-14T09:22:40.884Z,86.50
2023-05-14T09:25:13.881Z,85.20
2023-05-14T09:27:41.059Z,83.90
2023-05-14T09:30:14.928Z,83.40
2023-05-14T09:32:46.335Z,82.10
2023-05-14T09:35:18.694Z,80.90
2023-05-14T09:37:47.780Z,79.50
2023-05-14T09:40:16.285Z,79.00
2023-05-14T09:42:43.837Z,78.90
2023-05-14T09:45:11.984Z,77.70
2023-05-14T09:47:39.893Z,76.40
2023-05-14T09:50:08.203Z,76.20
2023-05-14T09:52:35.544Z,75.70
2023-05-14T09:55:02.897Z,74.70
2023-05-14T09:57:30.070Z,73.50
2023-05-14T09:59:57.494Z,71.70
2023-05-14T10:02:27.166Z,70.60
2023-05-14T10:04:54.970Z,68.60
2023-05-14T10:07:30.013Z,67.50
2023-05-14T10:10:02.389Z,66.40
2023-05-14T10:12:37.205Z,66.40
2023-05-14T10:15:13.137Z,64.80
2023-05-14T10:17:44.408Z,63.40
2023-05-14T10:20:17.241Z,62.30
2023-05-14T10:22:48.062Z,62.10
2023-05-14T10:25:16.424Z,62.30
2023-05-14T10:27:44.356Z,61.60
2023-05-14T10:30:15.011Z,60.80
2023-05-14T10:32:44.890Z,60.70
2023-05-14T10:35:25.715Z,60.70
2023-05-14T10:37:53.079Z,59.90
2023-05-14T10:40:25.043Z,60.10
2023-05-14T10:42:53.129Z,59.30
2023-05-14T10:45:20.254Z,58.70
2023-05-14T10:47:49.001Z,58.30
2023-05-14T10:50:17.795Z,58.20
2023-05-14T10:52:46.056Z,58.20
2023-05-14T10:55:15.347Z,58.10
2023-05-14T10:57:45.062Z,57.20
2023-05-14T11:00:14.297Z,56.50
2023-05-14T11:02:43.491Z,56.00
2023-05-14T11:05:14.439Z,55.80
2023-05-14T11:07:50.340Z,55.40
2023-05-14T11:10:19.206Z,55.60
2023-05-14T11:12:48.509Z,55.60
2023-05-14T11:15:18.474Z,55.80
2023-05-14T11:17:47.399Z,56.20
2023-05-14T11:20:15.836Z,56.50
2023-05-14T11:22:44.270Z,56.90
2023-05-14T11:25:15.078Z,57.70
2023-05-14T11:27:44.744Z,59.40
2023-05-14T11:30:20.258Z,61.10
2023-05-14T11:32:49.752Z,63.30
2023-05-14T11:35:18.518Z,64.30
2023-05-14T11:37:55.089Z,65.50
2023-05-14T11:40:22.734Z,66.40
2023-05-14T11:42:53.318Z,68.60
2023-05-14T11:45:27.933Z,69.00
2023-05-14T11:47:55.215Z,69.40
2023-05-14T11:50:25.782Z,70.20
2023-05-14T11:52:57.564Z,70.80
2023-05-14T11:55:24.753Z,70.60
2023-05-14T11:57:52.429Z,70.00
2023-05-14T12:00:22.341Z,69.40
2023-05-14T12:02:50.402Z,69.00
2023-05-14T12:05:18.984Z,70.10
2023-05-14T12:07:47.701Z,71.30
2023-05-14T12:10:15.011Z,71.60
2023-05-14T12:12:47.659Z,71.20
2023-05-14T12:15:17.228Z,71.30
2023-05-14T12:17:51.252Z,71.50
2023-05-14T12:20:18.646Z,70.60
2023-05-14T12:22:45.860Z,69.80
2023-05-14T12:25:14.161Z,70.20
2023-05-14T12:27:41.757Z,70.70
2023-05-14T12:32:41.577Z,70.70
2023-05-14T12:35:09.835Z,70.20
2023-05-14T12:37:37.826Z,69.50
2023-05-14T12:40:11.759Z,68.40
2023-05-14T12:42:38.888Z,67.40
2023-05-14T12:45:08.962Z,65.50
2023-05-14T12:47:37.327Z,65.10
2023-05-14T12:50:06.323Z,65.70
2023-05-14T12:52:38.306Z,64.50
2023-05-14T12:55:10.266Z,62.00
2023-05-14T12:57:39.470Z,61.50
2023-05-14T13:00:08.604Z,60.90
2023-05-14T13:02:42.863Z,60.90
2023-05-14T13:05:14.552Z,59.80
2023-05-14T13:07:42.820Z,59.20
2023-05-14T13:10:10.644Z,58.80
2023-05-14T13:12:39.131Z,58.70
2023-05-14T13:15:09.689Z,58.70
2023-05-14T13:17:37.493Z,58.50
2023-05-14T13:20:05.029Z,58.60
2023-05-14T13:22:32.215Z,59.00
2023-05-14T13:24:59.485Z,58.70
2023-05-14T13:27:26.795Z,58.80
2023-05-14T13:29:53.937Z,58.80
2023-05-14T13:32:21.043Z,59.00
2023-05-14T13:34:48.291Z,59.00
2023-05-14T13:37:15.767Z,58.20
2023-05-14T13:39:42.960Z,57.80
2023-05-14T13:42:10.139Z,57.10
2023-05-14T13:44:37.247Z,56.80
2023-05-14T13:47:04.700Z,56.20
2023-05-14T13:49:31.958Z,56.10
2023-05-14T13:51:59.097Z,56.30
2023-05-14T13:54:26.302Z,56.10
2023-05-14T13:56:53.582Z,55.50
2023-05-14T13:59:21.518Z,54.70
2023-05-14T14:01:50.487Z,54.50
2023-05-14T14:04:18.275Z,54.40
2023-05-14T14:06:45.704Z,54.00
2023-05-14T14:09:14.057Z,53.90
2023-05-14T14:11:41.749Z,53.70
2023-05-14T14:14:09.001Z,53.50
2023-05-14T14:16:36.440Z,53.30
2023-05-14T14:19:03.574Z,53.80
2023-05-14T14:21:32.015Z,54.00
2023-05-14T14:23:59.298Z,54.00
2023-05-14T14:26:28.058Z,53.90
2023-05-14T14:28:55.610Z,54.00
2023-05-14T14:31:22.948Z,53.60
2023-05-14T14:33:50.146Z,53.30
2023-05-14T14:36:17.367Z,53.10
2023-05-14T14:38:44.694Z,53.30
2023-05-14T14:41:12.005Z,53.40
2023-05-14T14:43:41.389Z,53.20
2023-05-14T14:46:11.350Z,52.90
2023-05-14T14:48:38.969Z,52.50
2023-05-14T14:51:09.607Z,52.60
2023-05-14T14:53:37.364Z,53.20
2023-05-14T14:56:05.005Z,53.20
2023-05-14T14:58:32.386Z,53.50
2023-05-14T15:01:01.514Z,53.10
2023-05-14T15:03:32.012Z,53.30
2023-05-14T15:05:59.660Z,53.70
2023-05-14T15:08:28.052Z,54.00
2023-05-14T15:10:59.564Z,54.10
2023-05-14T15:13:27.330Z,54.60
2023-05-14T15:15:54.656Z,54.90
2023-05-14T15:18:22.136Z,55.30
2023-05-14T15:20:49.844Z,55.40
2023-05-14T15:23:17.064Z,55.40
2023-05-14T15:25:44.556Z,55.40
2023-05-14T15:28:11.898Z,55.40
2023-05-14T15:30:39.164Z,55.50
2023-05-14T15:33:08.904Z,55.50
2023-05-14T15:35:36.744Z,55.40
2023-05-14T15:38:04.345Z,55.40
2023-05-14T15:40:31.620Z,55.30
2023-05-14T15:42:58.896Z,55.10
2023-05-14T15:45:26.065Z,55.10
2023-05-14T15:47:55.714Z,55.30
2023-05-14T15:50:23.226Z,55.50
2023-05-14T15:52:50.582Z,55.60
2023-05-14T15:55:18.024Z,55.70
2023-05-14T15:57:45.175Z,55.50
2023-05-14T16:00:12.868Z,55.50
2023-05-14T16:02:40.569Z,55.60
2023-05-14T16:05:08.774Z,55.70
2023-05-14T16:07:37.187Z,55.70
2023-05-14T16:10:05.041Z,55.50
2023-05-14T16:12:32.275Z,55.60
2023-05-14T16:15:00.245Z,55.50
2023-05-14T16:17:28.441Z,55.80
2023-05-14T16:19:56.481Z,56.00
2023-05-14T16:22:23.963Z,56.00
2023-05-14T16:24:51.257Z,56.30
2023-05-14T16:27:21.125Z,56.50
2023-05-14T16:29:48.153Z,56.70
2023-05-14T16:32:15.465Z,57.00
2023-05-14T16:34:49.787Z,57.30
2023-05-14T16:37:17.840Z,57.40
2023-05-14T16:39:45.086Z,57.50
2023-05-14T16:42:12.211Z,57.70
2023-05-14T16:44:39.549Z,57.70
2023-05-14T16:47:06.996Z,57.70
2023-05-14T16:49:34.448Z,57.90
2023-05-14T16:52:01.644Z,58.00
2023-05-14T16:54:29.133Z,58.10
2023-05-14T16:56:56.206Z,58.20
2023-05-14T16:59:23.502Z,58.50
2023-05-14T17:01:50.941Z,58.60
2023-05-14T17:04:18.338Z,58.70
2023-05-14T17:06:46.901Z,58.90
2023-05-14T17:09:14.075Z,59.00
2023-05-14T17:11:41.196Z,59.20
2023-05-14T17:14:08.421Z,59.50
2023-05-14T17:16:35.723Z,59.70
2023-05-14T17:19:02.843Z,59.90
2023-05-14T17:21:29.949Z,60.40
2023-05-14T17:23:57.158Z,61.00
2023-05-14T17:26:24.434Z,61.30
2023-05-14T17:28:51.671Z,61.70
2023-05-14T17:31:18.882Z,62.10
2023-05-14T17:33:46.340Z,62.20
2023-05-14T17:36:13.581Z,62.60
2023-05-14T17:38:41.911Z,62.90
2023-05-14T17:41:10.057Z,64.00
2023-05-14T17:43:37.282Z,63.70
2023-05-14T17:46:05.438Z,64.20
2023-05-14T17:48:32.581Z,64.50
2023-05-14T17:50:59.602Z,64.90
2023-05-14T17:53:26.943Z,65.20
2023-05-14T17:55:54.371Z,65.40
2023-05-14T17:58:21.808Z,65.60
2023-05-14T18:00:49.379Z,65.80
2023-05-14T18:03:16.750Z,66.10
2023-05-14T18:05:44.050Z,66.40
2023-05-14T18:08:11.410Z,66.70
2023-05-14T18:10:38.498Z,66.90
2023-05-14T18:13:05.976Z,67.00
2023-05-14T18:15:33.160Z,67.00
2023-05-14T18:18:00.467Z,67.10
2023-05-14T18:20:27.624Z,67.20
2023-05-14T18:22:54.909Z,67.30
2023-05-14T18:25:22.327Z,67.30
2023-05-14T18:27:49.956Z,67.40
2023-05-14T18:30:17.411Z,67.40
2023-05-14T18:32:45.182Z,67.50
2023-05-14T18:35:13.315Z,67.70
2023-05-14T18:37:41.153Z,67.90
2023-05-14T18:40:09.132Z,68.10
2023-05-14T18:42:36.456Z,68.30
2023-05-14T18:45:04.538Z,68.40
2023-05-14T18:47:32.978Z,68.40
2023-05-14T18:50:02.185Z,68.50
2023-05-14T18:52:30.396Z,68.60
2023-05-14T18:54:57.710Z,68.50
2023-05-14T18:57:32.330Z,68.60
2023-05-14T19:00:03.460Z,68.80
2023-05-14T19:02:31.175Z,68.90
2023-05-14T19:04:58.664Z,68.90
2023-05-14T19:07:27.498Z,69.80
2023-05-14T19:09:54.616Z,69.10
2023-05-14T19:12:22.172Z,69.30
2023-05-14T19:14:49.532Z,69.50
2023-05-14T19:17:18.480Z,69.70
2023-05-14T19:19:50.193Z,70.00
2023-05-14T19:22:17.633Z,70.40
2023-05-14T19:24:44.778Z,70.60
2023-05-14T19:27:16.431Z,70.90
2023-05-14T19:29:44.764Z,71.40
2023-05-14T19:32:12.082Z,71.80
2023-05-14T19:34:39.429Z,72.00
2023-05-14T19:37:06.803Z,72.30
2023-05-14T19:39:34.265Z,72.50
2023-05-14T19:42:01.646Z,72.70
2023-05-14T19:44:28.965Z,73.10
2023-05-14T19:46:56.226Z,73.40
2023-05-14T19:49:23.586Z,73.50
2023-05-14T19:51:50.942Z,73.50
2023-05-14T19:54:18.304Z,73.70
2023-05-14T19:56:45.674Z,73.80
2023-05-14T19:59:13.025Z,74.00
2023-05-14T20:01:40.210Z,74.10
2023-05-14T20:04:07.669Z,74.50
2023-05-14T20:06:34.911Z,74.60
2023-05-14T20:09:02.401Z,75.00
2023-05-14T20:11:29.659Z,75.00
2023-05-14T20:13:57.009Z,75.20
2023-05-14T20:16:24.333Z,75.40
2023-05-14T20:18:53.681Z,75.60
2023-05-14T20:21:24.029Z,75.90
2023-05-14T20:23:51.818Z,76.10
2023-05-14T20:26:19.181Z,76.40
2023-05-14T20:28:46.572Z,76.70
2023-05-14T20:31:14.034Z,76.90
2023-05-14T20:33:41.367Z,77.00
2023-05-14T20:36:08.765Z,77.20
2023-05-14T20:38:36.437Z,77.40
2023-05-14T20:41:05.696Z,77.50
2023-05-14T20:43:32.849Z,77.70
2023-05-14T20:46:00.771Z,77.80
2023-05-14T20:48:28.461Z,78.00
2023-05-14T20:50:55.740Z,78.20
2023-05-14T20:53:23.054Z,78.50
2023-05-14T20:55:50.733Z,78.70
2023-05-14T20:58:17.966Z,78.80
2023-05-14T21:00:45.117Z,79.10
2023-05-14T21:03:12.390Z,79.40
2023-05-14T21:05:41.634Z,79.60
2023-05-14T21:08:08.780Z,79.90
2023-05-14T21:10:35.871Z,79.90
2023-05-14T21:13:03.211Z,80.10
2023-05-14T21:15:31.093Z,80.20
2023-05-14T21:17:58.648Z,80.30
2023-05-14T21:20:26.243Z,80.50
2023-05-14T21:22:53.599Z,80.90
2023-05-14T21:25:21.000Z,81.10
2023-05-14T21:27:48.425Z,81.50
2023-05-14T21:30:15.939Z,81.80
2023-05-14T21:32:43.215Z,82.00
2023-05-14T21:35:10.738Z,82.20
2023-05-14T21:37:40.041Z,82.40
2023-05-14T21:40:12.660Z,82.60
2023-05-14T21:42:41.114Z,82.80
2023-05-14T21:45:09.083Z,83.00
2023-05-14T21:47:37.526Z,83.40
2023-05-14T21:50:06.029Z,83.80
2023-05-14T21:52:33.789Z,84.30
2023-05-14T21:55:01.132Z,84.50
2023-05-14T21:57:29.210Z,84.70
2023-05-14T21:59:58.463Z,84.90
2023-05-14T22:02:25.642Z,85.10
2023-05-14T22:04:52.828Z,85.30
2023-05-14T22:07:20.094Z,85.50
2023-05-14T22:09:47.303Z,85.80
2023-05-14T22:12:14.529Z,86.10
2023-05-14T22:14:42.107Z,86.40
2023-05-14T22:17:09.860Z,86.70
2023-05-14T22:19:37.104Z,86.90
2023-05-14T22:22:04.404Z,87.20
2023-05-14T22:24:31.757Z,87.50
2023-05-14T22:26:59.016Z,87.80
2023-05-14T22:29:26.151Z,88.20
2023-05-14T22:31:53.522Z,88.20
2023-05-14T22:34:20.646Z,88.50
2023-05-14T22:36:47.940Z,88.60
2023-05-14T22:39:15.098Z,88.90
2023-05-14T22:41:42.305Z,89.20
2023-05-14T22:44:09.663Z,89.50
2023-05-14T22:46:36.948Z,89.80
2023-05-14T22:49:04.234Z,90.00
2023-05-14T22:51:31.407Z,90.10
2023-05-14T22:53:58.647Z,90.30
2023-05-14T22:56:25.840Z,90.30
2023-05-14T22:58:53.027Z,90.40
2023-05-14T23:01:20.152Z,90.40
2023-05-14T23:03:47.387Z,90.50
2023-05-14T23:06:15.095Z,90.70
2023-05-14T23:08:42.364Z,90.80
2023-05-14T23:11:10.283Z,91.00
2023-05-14T23:13:37.756Z,91.00
2023-05-14T23:16:06.251Z,91.20
2023-05-14T23:18:33.678Z,91.40
2023-05-14T23:21:01.174Z,91.60
2023-05-14T23:23:28.407Z,91.80
2023-05-14T23:25:56.460Z,92.00
2023-05-14T23:28:23.653Z,92.10
2023-05-14T23:30:50.813Z,92.00
2023-05-14T23:33:17.956Z,92.10
2023-05-14T23:35:45.400Z,92.20
2023-05-14T23:38:12.674Z,92.30
2023-05-14T23:40:39.843Z,92.30
2023-05-14T23:43:07.010Z,92.40
2023-05-14T23:45:34.420Z,92.50
2023-05-14T23:48:01.934Z,92.60
2023-05-14T23:50:29.065Z,92.70
2023-05-14T23:52:56.423Z,92.90
2023-05-14T23:55:24.542Z,93.20
2023-05-14T23:57:52.191Z,93.30
